createdAt,value
2022-12-18T00:00:06.739Z,103012.66
2022-12-18T00:02:33.665Z,103007.06
2022-12-18T00:05:00.411Z,102998.75
2022-12-18T00:07:28.334Z,103001.41
2022-12-18T00:09:56.808Z,102988.09
2022-12-18T00:12:23.392Z,102980.31
2022-12-18T00:14:50.019Z,102985.88
2022-12-18T00:17:16.772Z,102989.13
2022-12-18T00:19:43.426Z,102985.44
2022-12-18T00:22:10.048Z,102981.84
2022-12-18T00:24:36.639Z,102996.47
2022-12-18T00:27:03.422Z,102995.41
2022-12-18T00:29:30.477Z,103000.75
2022-12-18T00:31:57.179Z,102998.91
2022-12-18T00:34:23.752Z,102997.19
2022-12-18T00:36:50.528Z,102980.06
2022-12-18T00:39:17.134Z,102986.19
2022-12-18T00:42:02.439Z,102985.97
2022-12-18T00:44:29.040Z,102981.69
2022-12-18T00:46:55.755Z,102984.59
2022-12-18T00:49:22.392Z,102974.97
2022-12-18T00:51:49.742Z,102977.31
2022-12-18T00:54:18.653Z,102987.41
2022-12-18T00:56:48.977Z,102984.41
2022-12-18T00:59:17.445Z,102979.06
2022-12-18T01:01:44.230Z,102976.19
2022-12-18T01:04:11.078Z,102980.72
2022-12-18T01:06:37.836Z,102973.16
2022-12-18T01:09:04.569Z,102968.91
2022-12-18T01:11:31.917Z,102975.84
2022-12-18T01:14:04.464Z,102970.19
2022-12-18T01:16:31.052Z,102974.72
2022-12-18T01:18:57.735Z,102975.25
2022-12-18T01:21:25.157Z,102982.44
2022-12-18T01:23:53.388Z,102980.13
2022-12-18T01:26:21.491Z,102981.66
2022-12-18T01:28:48.480Z,102993.13
2022-12-18T01:31:32.617Z,102993.13
2022-12-18T01:34:02.270Z,102993.13
2022-12-18T01:36:31.698Z,102997.63
2022-12-18T01:39:00.597Z,102991.75
2022-12-18T01:41:47.751Z,102999.38
2022-12-18T01:44:51.894Z,103001.97
2022-12-18T01:47:33.114Z,103008.34
2022-12-18T01:50:05.879Z,103010.19
2022-12-18T01:52:34.376Z,103004.84
2022-12-18T01:55:02.737Z,103001.53
2022-12-18T01:57:29.837Z,103000.72
2022-12-18T02:00:00.812Z,102998.28
2022-12-18T02:02:30.032Z,102996.13
2022-12-18T02:04:56.758Z,103005.41
2022-12-18T02:07:43.716Z,103006.41
2022-12-18T02:10:30.013Z,103009.78
2022-12-18T02:13:10.429Z,103007.03
2022-12-18T02:15:47.083Z,103004.50
2022-12-18T02:18:22.278Z,103000.69
2022-12-18T02:20:54.877Z,103008.09
2022-12-18T02:23:28.161Z,103007.22
2022-12-18T02:26:07.054Z,103004.56
2022-12-18T02:28:40.003Z,103010.00
2022-12-18T02:31:12.206Z,103014.75
2022-12-18T02:33:41.768Z,103013.38
2022-12-18T02:36:11.864Z,103005.50
2022-12-18T02:38:39.363Z,103004.34
2022-12-18T02:41:07.248Z,103003.53
2022-12-18T02:43:34.178Z,103000.53
2022-12-18T02:46:02.009Z,102999.16
2022-12-18T02:48:34.731Z,102983.66
2022-12-18T02:51:17.055Z,102981.44
2022-12-18T02:53:53.604Z,102981.94
2022-12-18T02:56:27.497Z,102989.91
2022-12-18T02:59:03.495Z,102980.53
2022-12-18T03:02:02.978Z,102987.94
2022-12-18T03:04:39.655Z,102976.16
2022-12-18T03:07:12.514Z,102975.78
2022-12-18T03:09:43.949Z,102971.75
2022-12-18T03:12:24.701Z,102967.13
2022-12-18T03:14:57.932Z,102961.44
2022-12-18T03:17:27.785Z,102969.91
2022-12-18T03:19:57.496Z,102969.31
2022-12-18T03:22:28.837Z,102966.34
2022-12-18T03:24:58.379Z,102957.78
2022-12-18T03:27:28.097Z,102953.50
2022-12-18T03:30:08.391Z,102950.50
2022-12-18T03:32:43.403Z,102952.00
2022-12-18T03:35:13.089Z,102954.41
2022-12-18T03:37:40.006Z,102949.66
2022-12-18T03:40:07.145Z,102941.13
2022-12-18T03:42:54.728Z,102938.72
2022-12-18T03:45:42.828Z,102938.22
2022-12-18T03:48:18.470Z,102935.56
2022-12-18T03:50:49.836Z,102932.91
2022-12-18T03:53:27.400Z,102934.41
2022-12-18T03:55:54.882Z,102934.31
2022-12-18T03:58:25.725Z,102935.59
2022-12-18T04:00:57.069Z,102930.47
2022-12-18T04:03:26.620Z,102929.91
2022-12-18T04:05:55.606Z,102926.44
2022-12-18T04:08:23.147Z,102924.00
2022-12-18T04:10:49.744Z,102921.94
2022-12-18T04:13:24.842Z,102912.34
2022-12-18T04:15:51.986Z,102914.44
2022-12-18T04:18:18.597Z,102904.03
2022-12-18T04:20:45.167Z,102905.28
2022-12-18T04:23:12.053Z,102906.34
2022-12-18T04:25:38.597Z,102905.28
2022-12-18T04:28:05.149Z,102901.38
2022-12-18T04:30:31.656Z,102898.72
2022-12-18T04:32:58.238Z,102898.94
2022-12-18T04:35:24.821Z,102900.78
2022-12-18T04:37:51.367Z,102901.38
2022-12-18T04:40:18.100Z,102897.31
2022-12-18T04:42:44.743Z,102906.34
2022-12-18T04:45:11.643Z,102908.44
2022-12-18T04:47:38.258Z,102911.78
2022-12-18T04:50:05.313Z,102922.63
2022-12-18T04:52:31.843Z,102926.31
2022-12-18T04:54:58.482Z,102931.63
2022-12-18T04:57:26.526Z,102929.22
2022-12-18T04:59:53.078Z,102935.78
2022-12-18T05:02:19.706Z,102936.59
2022-12-18T05:04:46.357Z,102943.75
2022-12-18T05:07:12.847Z,102950.47
2022-12-18T05:09:39.466Z,102943.75
2022-12-18T05:12:06.226Z,102950.91
2022-12-18T05:14:33.786Z,102948.13
2022-12-18T05:17:01.218Z,102947.53
2022-12-18T05:19:27.969Z,102963.69
2022-12-18T05:21:54.561Z,102953.06
2022-12-18T05:24:21.131Z,102963.16
2022-12-18T05:26:47.646Z,102972.72
2022-12-18T05:29:14.266Z,102977.81
2022-12-18T05:31:41.120Z,102975.97
2022-12-18T05:34:09.531Z,102986.00
2022-12-18T05:36:37.276Z,102978.63
2022-12-18T05:39:04.206Z,102978.41
2022-12-18T05:41:31.155Z,102973.91
2022-12-18T05:43:57.801Z,102963.50
2022-12-18T05:46:25.285Z,102948.00
2022-12-18T05:48:52.548Z,102943.97
2022-12-18T05:51:23.110Z,102946.63
2022-12-18T05:53:49.931Z,102942.34
2022-12-18T05:56:21.927Z,102944.78
2022-12-18T05:58:48.745Z,102938.88
2022-12-18T06:01:19.885Z,102940.25
2022-12-18T06:03:47.307Z,102937.38
2022-12-18T06:06:18.689Z,102933.09
2022-12-18T06:08:46.655Z,102934.16
2022-12-18T06:11:14.297Z,102929.63
2022-12-18T06:13:41.236Z,102926.97
2022-12-18T06:16:09.201Z,102926.75
2022-12-18T06:18:41.666Z,102922.94
2022-12-18T06:21:08.360Z,102914.84
2022-12-18T06:23:35.706Z,102916.09
2022-12-18T06:26:08.361Z,102918.41
2022-12-18T06:28:34.965Z,102913.53
2022-12-18T06:31:01.612Z,102905.03
2022-12-18T06:33:29.131Z,102908.47
2022-12-18T06:36:01.708Z,102903.97
2022-12-18T06:38:28.378Z,102900.25
2022-12-18T06:40:55.047Z,102897.28
2022-12-18T06:43:21.622Z,102897.50
2022-12-18T06:45:53.558Z,102902.00
2022-12-18T06:48:20.908Z,102883.63
2022-12-18T06:50:47.766Z,102883.88
2022-12-18T06:53:14.516Z,102883.50
2022-12-18T06:55:41.647Z,102884.78
2022-12-18T06:58:08.684Z,102872.78
2022-12-18T07:00:37.362Z,102875.06
2022-12-18T07:03:03.994Z,102869.97
2022-12-18T07:05:30.595Z,102868.59
2022-12-18T07:07:57.139Z,102865.94
2022-12-18T07:10:23.681Z,102861.66
2022-12-18T07:12:50.246Z,102864.53
2022-12-18T07:15:16.797Z,102862.94
2022-12-18T07:17:43.315Z,102852.53
2022-12-18T07:20:10.703Z,102851.28
2022-12-18T07:22:37.206Z,102854.13
2022-12-18T07:25:03.910Z,102857.84
2022-12-18T07:27:30.457Z,102854.13
2022-12-18T07:29:58.188Z,102859.22
2022-12-18T07:32:24.703Z,102849.66
2022-12-18T07:34:54.327Z,102842.94
2022-12-18T07:37:21.566Z,102838.91
2022-12-18T07:39:48.096Z,102828.53
2022-12-18T07:42:31.567Z,102832.00
2022-12-18T07:44:58.939Z,102838.69
2022-12-18T07:47:25.577Z,102824.81
2022-12-18T07:49:52.415Z,102819.75
2022-12-18T07:52:24.331Z,102817.91
2022-12-18T07:54:52.597Z,102810.16
2022-12-18T07:57:41.830Z,102808.31
2022-12-18T08:00:06.248Z,102808.09
2022-12-18T08:02:33.046Z,102811.34
2022-12-18T08:04:59.775Z,102802.91
2022-12-18T08:07:37.115Z,102808.00
2022-12-18T08:10:07.491Z,102795.88
2022-12-18T08:12:42.292Z,102781.69
2022-12-18T08:15:10.027Z,102779.38
2022-12-18T08:17:36.500Z,102783.19
2022-12-18T08:20:03.134Z,102796.00
2022-12-18T08:22:30.493Z,102797.63
2022-12-18T08:24:56.988Z,102793.94
2022-12-18T08:27:31.216Z,102809.97
2022-12-18T08:29:58.613Z,102816.91
2022-12-18T08:32:27.799Z,102822.59
2022-12-18T08:34:54.510Z,102821.31
2022-12-18T08:37:21.087Z,102818.66
2022-12-18T08:39:47.678Z,102815.53
2022-12-18T08:42:32.997Z,102818.78
2022-12-18T08:44:59.525Z,102808.94
2022-12-18T08:47:27.949Z,102809.53
2022-12-18T08:49:55.784Z,102811.97
2022-12-18T08:52:23.238Z,102811.97
2022-12-18T08:54:49.773Z,102812.53
2022-12-18T08:57:17.080Z,102801.66
2022-12-18T08:59:43.791Z,102801.44
2022-12-18T09:02:12.449Z,102822.78
2022-12-18T09:04:40.761Z,102829.84
2022-12-18T09:07:08.250Z,102823.63
2022-12-18T09:09:34.953Z,102820.25
2022-12-18T09:12:01.677Z,102812.63
2022-12-18T09:14:28.237Z,102815.41
2022-12-18T09:16:54.868Z,102811.22
2022-12-18T09:19:21.741Z,102803.13
2022-12-18T09:21:49.372Z,102803.22
2022-12-18T09:24:16.968Z,102805.53
2022-12-18T09:26:47.038Z,102813.13
2022-12-18T09:29:15.514Z,102806.06
2022-12-18T09:31:42.920Z,102811.69
2022-12-18T09:34:09.491Z,102801.19
2022-12-18T09:36:36.154Z,102787.97
2022-12-18T09:39:07.867Z,102790.72
2022-12-18T09:41:41.953Z,102782.00
2022-12-18T09:44:24.277Z,102780.28
2022-12-18T09:46:57.976Z,102778.50
2022-12-18T09:49:27.586Z,102781.84
2022-12-18T09:52:02.480Z,102777.38
2022-12-18T09:54:39.306Z,102769.50
2022-12-18T09:57:06.383Z,102761.84
2022-12-18T09:59:41.355Z,102760.31
2022-12-18T10:02:24.062Z,102764.09
2022-12-18T10:05:09.349Z,102760.22
2022-12-18T10:07:57.132Z,102763.06
2022-12-18T10:10:30.681Z,102763.94
2022-12-18T10:13:10.752Z,102757.88
2022-12-18T10:15:59.451Z,102753.44
2022-12-18T10:18:39.915Z,102746.06
2022-12-18T10:21:20.258Z,102746.97
2022-12-18T10:24:02.632Z,102752.91
2022-12-18T10:26:29.239Z,102757.28
2022-12-18T10:29:02.157Z,102755.47
2022-12-18T10:31:32.105Z,102754.50
2022-12-18T10:33:58.726Z,102749.22
2022-12-18T10:36:25.659Z,102726.13
2022-12-18T10:38:52.492Z,102721.06
2022-12-18T10:41:19.902Z,102735.53
2022-12-18T10:43:48.810Z,102741.75
2022-12-18T10:46:18.984Z,102740.19
2022-12-18T10:48:48.622Z,102729.00
2022-12-18T10:51:31.410Z,102720.28
2022-12-18T10:54:01.703Z,102718.72
2022-12-18T10:56:32.269Z,102722.22
2022-12-18T10:59:01.978Z,102709.75
2022-12-18T11:01:32.132Z,102708.22
2022-12-18T11:04:02.044Z,102710.13
2022-12-18T11:06:30.343Z,102694.16
2022-12-18T11:09:13.169Z,102694.19
2022-12-18T11:11:41.902Z,102693.44
2022-12-18T11:14:19.663Z,102683.06
2022-12-18T11:17:23.722Z,102676.97
2022-12-18T11:19:39.135Z,102682.63
2022-12-18T11:22:22.119Z,102673.28
2022-12-18T11:25:30.256Z,102661.84
2022-12-18T11:27:52.770Z,102653.06
2022-12-18T11:30:48.186Z,102653.66
2022-12-18T11:33:21.917Z,102659.03
2022-12-18T11:36:04.797Z,102662.25
2022-12-18T11:38:36.141Z,102668.69
2022-12-18T11:41:48.162Z,102669.47
2022-12-18T11:44:21.248Z,102665.25
2022-12-18T11:46:53.033Z,102669.81
2022-12-18T11:49:34.241Z,102660.50
2022-12-18T11:52:16.637Z,102657.06
2022-12-18T11:54:43.397Z,102653.84
2022-12-18T11:57:22.665Z,102650.94
2022-12-18T12:00:03.752Z,102641.06
2022-12-18T12:02:58.175Z,102630.13
2022-12-18T12:05:35.511Z,102632.50
2022-12-18T12:08:14.827Z,102625.03
2022-12-18T12:11:00.459Z,102611.97
2022-12-18T12:13:42.129Z,102601.28
2022-12-18T12:16:21.446Z,102599.72
2022-12-18T12:19:01.064Z,102605.59
2022-12-18T12:21:41.548Z,102603.19
2022-12-18T12:24:48.194Z,102588.78
2022-12-18T12:28:02.002Z,102587.19
2022-12-18T12:31:01.169Z,102591.22
2022-12-18T12:33:54.808Z,102580.53
2022-12-18T12:47:17.210Z,102559.16
2022-12-18T13:06:59.192Z,102541.03
2022-12-18T14:36:38.782Z,102439.44
2022-12-18T15:39:21.472Z,102411.38
2022-12-18T15:44:56.789Z,102410.81
2022-12-18T15:47:23.540Z,102410.03
2022-12-18T15:49:50.232Z,102398.25
2022-12-18T15:52:26.959Z,102393.72
2022-12-18T15:55:27.947Z,102391.81
2022-12-18T16:22:32.825Z,102333.28
2022-12-18T16:31:38.506Z,102334.34
2022-12-18T16:48:49.364Z,102300.91
2022-12-18T16:54:43.376Z,102304.91
2022-12-18T16:58:06.449Z,102295.28
2022-12-18T17:07:26.670Z,102298.50
2022-12-18T17:11:10.782Z,102293.94
2022-12-18T17:14:26.299Z,102296.63
2022-12-18T17:20:30.112Z,102293.69
2022-12-18T18:04:31.844Z,102279.19
2022-12-18T18:06:58.676Z,102283.47
2022-12-18T18:15:13.907Z,102297.91
2022-12-18T18:17:40.715Z,102288.00
2022-12-18T18:20:10.990Z,102289.06
2022-12-18T18:31:05.909Z,102281.03
2022-12-18T18:58:47.467Z,102250.75
2022-12-18T19:01:17.604Z,102253.16
2022-12-18T19:03:45.803Z,102251.28
2022-12-18T19:06:18.114Z,102256.34
2022-12-18T19:08:47.519Z,102256.88
2022-12-18T19:11:36.581Z,102254.47
2022-12-18T19:14:06.499Z,102240.84
2022-12-18T19:16:34.688Z,102251.25
2022-12-18T19:19:02.761Z,102252.84
2022-12-18T19:21:31.408Z,102255.22
2022-12-18T19:24:01.726Z,102253.38
2022-12-18T19:26:28.946Z,102251.22
2022-12-18T19:29:02.331Z,102249.34
2022-12-18T19:31:34.829Z,102245.31
2022-12-18T19:34:02.568Z,102251.19
2022-12-18T19:36:30.449Z,102252.78
2022-12-18T19:39:00.349Z,102260.53
2022-12-18T19:41:31.317Z,102255.19
2022-12-18T19:44:00.133Z,102255.97
2022-12-18T19:46:34.109Z,102261.06
2022-12-18T19:49:01.131Z,102262.66
2022-12-18T19:51:29.242Z,102261.31
2022-12-18T19:53:59.294Z,102253.00
2022-12-18T19:56:30.835Z,102266.91
2022-12-18T19:58:57.791Z,102252.72
2022-12-18T20:01:25.819Z,102255.41
2022-12-18T20:03:54.465Z,102249.78
2022-12-18T20:06:34.406Z,102237.22
2022-12-18T20:09:06.214Z,102241.25
2022-12-18T20:11:41.339Z,102244.75
2022-12-18T20:14:08.648Z,102246.59
2022-12-18T20:16:35.579Z,102247.94
2022-12-18T20:19:02.595Z,102248.75
2022-12-18T20:21:29.426Z,102251.41
2022-12-18T20:23:56.262Z,102238.88
2022-12-18T20:26:23.440Z,102245.00
2022-12-18T20:28:50.239Z,102258.38
2022-12-18T20:31:19.650Z,102255.72
2022-12-18T20:33:48.625Z,102246.91
2022-12-18T20:36:21.418Z,102248.22
2022-12-18T20:38:52.950Z,102247.94
2022-12-18T20:41:24.634Z,102243.91
2022-12-18T20:43:52.558Z,102238.56
2022-12-18T20:46:20.945Z,102234.31
2022-12-18T20:48:48.298Z,102231.63
2022-12-18T20:51:19.366Z,102230.00
2022-12-18T20:53:48.572Z,102229.22
2022-12-18T20:56:22.170Z,102230.00
2022-12-18T20:59:33.717Z,102221.50
2022-12-18T21:02:00.798Z,102216.91
2022-12-18T21:10:27.828Z,102191.75
2022-12-18T21:13:14.632Z,102190.16
2022-12-18T21:15:53.529Z,102183.72
2022-12-18T21:18:22.146Z,102188.81
2022-12-18T21:20:51.167Z,102188.53
2022-12-18T21:23:18.381Z,102183.19
2022-12-18T21:25:56.156Z,102175.66
2022-12-18T21:28:25.627Z,102177.00
2022-12-18T21:39:08.773Z,102168.13
2022-12-18T21:42:02.104Z,102169.50
2022-12-18T21:44:29.768Z,102167.34
2022-12-18T21:47:09.401Z,102174.84
2022-12-18T21:49:43.866Z,102164.97
2022-12-18T21:52:11.210Z,102153.44
2022-12-18T21:54:38.078Z,102163.31
2022-12-18T21:57:06.404Z,102156.09
2022-12-18T21:59:35.655Z,102140.56
2022-12-18T22:02:06.786Z,102111.91
2022-12-18T22:04:36.893Z,102130.63
2022-12-18T22:07:05.558Z,102133.31
2022-12-18T22:09:43.593Z,102124.97
2022-12-18T22:12:44.434Z,102122.81
2022-12-18T22:15:26.663Z,102116.94
2022-12-18T22:17:59.966Z,102113.72
2022-12-18T22:20:27.106Z,102105.44
2022-12-18T22:22:53.803Z,102107.28
2022-12-18T22:25:20.377Z,102100.34
2022-12-18T22:28:06.964Z,102088.03
2022-12-18T22:30:35.177Z,102072.78
2022-12-18T22:33:03.606Z,102071.69
2022-12-18T22:35:30.269Z,102062.06
2022-12-18T22:37:59.284Z,102053.72
2022-12-18T22:40:26.800Z,102046.53
2022-12-18T22:42:54.666Z,102042.47
2022-12-18T22:45:22.320Z,102024.81
2022-12-18T22:47:49.004Z,102024.28
2022-12-18T22:50:15.629Z,102027.47
2022-12-18T22:52:42.515Z,102025.91
2022-12-18T22:55:09.394Z,102014.88
2022-12-18T22:57:36.139Z,102019.19
2022-12-18T23:00:05.642Z,102029.09
2022-12-18T23:02:32.299Z,102027.22
2022-12-18T23:04:58.989Z,102023.16
2022-12-18T23:07:25.535Z,102015.13
2022-12-18T23:09:52.463Z,102006.00
2022-12-18T23:12:27.811Z,101988.06
2022-12-18T23:14:54.669Z,101983.22
2022-12-18T23:17:21.220Z,101974.91
2022-12-18T23:19:49.321Z,101968.16
2022-12-18T23:22:17.270Z,101978.16
2022-12-18T23:24:44.215Z,101992.13
2022-12-18T23:27:11.841Z,101993.44
2022-12-18T23:29:39.423Z,101985.59
2022-12-18T23:32:06.157Z,101977.56
2022-12-18T23:34:32.861Z,101979.97
2022-12-18T23:37:01.068Z,101976.19
2022-12-18T23:39:30.163Z,101962.25
2022-12-18T23:41:59.193Z,101947.25
2022-12-18T23:44:26.274Z,101940.31
2022-12-18T23:46:53.001Z,101931.19
2022-12-18T23:49:19.769Z,101926.34
2022-12-18T23:51:46.449Z,101932.53
2022-12-18T23:54:12.999Z,101944.03
2022-12-18T23:56:39.599Z,101932.81
2022-12-18T23:59:06.295Z,101934.38
